createdAt,value
2022-08-28T00:00:46.193Z,81.14
2022-08-28T00:05:47.929Z,80.90
2022-08-28T00:10:49.928Z,80.80
2022-08-28T00:15:55.372Z,81.18
2022-08-28T00:20:57.917Z,81.48
2022-08-28T00:26:00.374Z,81.30
2022-08-28T00:31:05.212Z,81.52
2022-08-28T00:36:06.872Z,82.15
2022-08-28T00:41:08.372Z,82.27
2022-08-28T00:46:16.276Z,82.34
2022-08-28T00:51:38.572Z,82.36
2022-08-28T00:56:41.228Z,82.16
2022-08-28T01:01:45.441Z,82.18
2022-08-28T01:06:52.491Z,82.03
2022-08-28T01:11:59.410Z,82.54
2022-08-28T01:17:00.951Z,82.71
2022-08-28T01:22:37.309Z,82.81
2022-08-28T01:27:41.815Z,82.80
2022-08-28T01:32:49.983Z,83.04
2022-08-28T01:37:52.624Z,82.91
2022-08-28T01:42:55.096Z,83.24
2022-08-28T01:47:56.634Z,83.09
2022-08-28T01:52:58.125Z,83.09
2022-08-28T01:57:59.926Z,83.36
2022-08-28T02:03:02.056Z,83.00
2022-08-28T02:08:05.373Z,83.28
2022-08-28T02:13:08.290Z,83.23
2022-08-28T02:18:10.853Z,83.01
2022-08-28T02:23:12.609Z,82.70
2022-08-28T02:28:14.412Z,82.89
2022-08-28T02:33:16.292Z,83.25
2022-08-28T02:38:18.891Z,83.30
2022-08-28T02:43:20.444Z,83.78
2022-08-28T02:48:21.919Z,83.90
2022-08-28T02:53:23.681Z,83.68
2022-08-28T02:58:26.860Z,83.76
2022-08-28T03:03:31.651Z,83.89
2022-08-28T03:08:33.445Z,83.62
2022-08-28T03:13:35.296Z,83.71
2022-08-28T03:18:37.243Z,83.76
2022-08-28T03:23:39.218Z,84.14
2022-08-28T03:28:46.670Z,84.34
2022-08-28T03:33:48.615Z,84.83
2022-08-28T03:38:52.348Z,84.29
2022-08-28T03:43:53.825Z,83.96
2022-08-28T03:48:55.694Z,83.86
2022-08-28T03:53:59.367Z,83.69
2022-08-28T03:59:02.251Z,83.50
2022-08-28T04:04:04.341Z,83.44
2022-08-28T04:09:05.977Z,83.41
2022-08-28T04:14:07.534Z,83.29
2022-08-28T04:19:09.077Z,83.43
2022-08-28T04:24:13.169Z,83.20
2022-08-28T04:29:16.021Z,83.25
2022-08-28T04:34:17.956Z,83.54
2022-08-28T04:39:19.800Z,83.33
2022-08-28T04:44:21.286Z,83.49
2022-08-28T04:49:22.984Z,83.29
2022-08-28T04:54:27.496Z,83.21
2022-08-28T04:59:29.610Z,82.89
2022-08-28T05:04:31.108Z,82.24
2022-08-28T05:09:34.833Z,81.45
2022-08-28T05:14:36.641Z,79.96
2022-08-28T05:19:38.163Z,78.84
2022-08-28T05:24:40.141Z,78.66
2022-08-28T05:29:41.641Z,78.33
2022-08-28T05:34:43.130Z,77.57
2022-08-28T05:39:44.619Z,77.16
2022-08-28T05:44:46.107Z,76.32
2022-08-28T05:49:47.591Z,76.19
2022-08-28T05:54:52.538Z,76.31
2022-08-28T05:59:54.022Z,76.13
2022-08-28T06:04:55.511Z,76.29
2022-08-28T06:09:57.010Z,75.92
2022-08-28T06:14:58.762Z,75.49
2022-08-28T06:20:00.246Z,75.21
2022-08-28T06:25:03.766Z,75.52
2022-08-28T06:30:08.845Z,75.07
2022-08-28T06:35:10.355Z,74.95
2022-08-28T06:40:12.510Z,75.57
2022-08-28T06:45:14.041Z,74.52
2022-08-28T06:50:16.356Z,73.30
2022-08-28T06:55:18.190Z,73.05
2022-08-28T07:00:19.803Z,71.40
2022-08-28T07:05:21.461Z,71.04
2022-08-28T07:10:22.985Z,70.15
2022-08-28T07:15:24.476Z,68.90
2022-08-28T07:20:25.966Z,69.75
2022-08-28T07:25:27.561Z,68.86
2022-08-28T07:30:29.258Z,68.42
2022-08-28T07:35:30.745Z,68.38
2022-08-28T07:40:32.314Z,67.63
2022-08-28T07:45:35.818Z,66.29
2022-08-28T07:50:37.535Z,65.96
2022-08-28T07:55:39.037Z,65.97
2022-08-28T08:00:41.382Z,64.93
2022-08-28T08:05:55.329Z,63.94
2022-08-28T08:11:02.237Z,63.61
2022-08-28T08:16:05.751Z,64.08
2022-08-28T08:21:09.914Z,63.62
2022-08-28T08:26:13.855Z,63.02
2022-08-28T08:31:17.088Z,61.94
2022-08-28T08:36:22.434Z,61.38
2022-08-28T08:41:47.955Z,62.68
2022-08-28T08:46:57.861Z,62.19
2022-08-28T08:52:13.345Z,61.76
2022-08-28T08:57:15.021Z,61.30
2022-08-28T09:02:31.539Z,60.00
2022-08-28T09:07:44.377Z,60.31
2022-08-28T09:13:00.966Z,59.89
2022-08-28T09:18:19.166Z,60.23
2022-08-28T09:23:23.938Z,59.94
2022-08-28T09:28:37.569Z,58.85
2022-08-28T09:33:48.852Z,57.95
2022-08-28T09:39:12.126Z,58.10
2022-08-28T09:44:17.230Z,57.55
2022-08-28T09:49:28.699Z,56.98
2022-08-28T09:54:31.908Z,57.05
2022-08-28T09:59:33.654Z,57.04
2022-08-28T10:05:01.040Z,57.00
2022-08-28T10:10:18.659Z,56.27
2022-08-28T10:15:43.442Z,56.93
2022-08-28T10:21:01.291Z,57.44
2022-08-28T10:26:26.799Z,57.02
2022-08-28T10:31:37.207Z,56.98
2022-08-28T10:36:38.788Z,56.41
2022-08-28T10:41:49.293Z,56.21
2022-08-28T10:46:53.666Z,55.05
2022-08-28T10:52:05.189Z,55.71
2022-08-28T10:57:39.423Z,54.78
2022-08-28T11:02:45.699Z,53.33
2022-08-28T11:07:53.078Z,54.68
2022-08-28T11:12:54.954Z,54.31
2022-08-28T11:18:15.141Z,54.89
2022-08-28T11:23:41.532Z,54.20
2022-08-28T11:28:47.326Z,53.91
2022-08-28T11:33:52.482Z,53.86
2022-08-28T11:38:54.168Z,54.78
2022-08-28T11:44:13.956Z,54.09
2022-08-28T11:49:27.406Z,54.25
2022-08-28T11:54:52.916Z,54.48
2022-08-28T12:00:10.598Z,54.64
2022-08-28T12:05:15.198Z,54.73
2022-08-28T12:10:22.609Z,55.16
2022-08-28T12:15:27.227Z,54.85
2022-08-28T12:20:58.558Z,54.69
2022-08-28T12:26:04.702Z,55.22
2022-08-28T12:31:06.244Z,55.18
2022-08-28T12:36:15.648Z,54.60
2022-08-28T12:41:18.346Z,54.73
2022-08-28T12:46:25.286Z,53.79
2022-08-28T12:51:30.454Z,52.84
2022-08-28T12:56:34.869Z,53.75
2022-08-28T13:01:36.594Z,54.37
2022-08-28T13:06:39.595Z,54.59
2022-08-28T13:11:47.350Z,55.60
2022-08-28T13:16:48.984Z,55.66
2022-08-28T13:21:58.610Z,55.10
2022-08-28T13:27:09.029Z,55.24
2022-08-28T13:32:18.311Z,55.93
2022-08-28T13:37:46.779Z,56.61
2022-08-28T13:42:48.555Z,57.28
2022-08-28T13:47:50.170Z,57.32
2022-08-28T13:52:51.766Z,57.99
2022-08-28T13:57:54.500Z,57.71
2022-08-28T14:03:15.512Z,56.21
2022-08-28T14:08:17.068Z,56.82
2022-08-28T14:13:19.824Z,57.57
2022-08-28T14:18:21.443Z,57.43
2022-08-28T14:23:23.119Z,57.08
2022-08-28T14:28:24.659Z,57.76
2022-08-28T14:33:26.225Z,58.19
2022-08-28T14:38:29.388Z,58.83
2022-08-28T14:43:31.597Z,58.99
2022-08-28T14:48:34.732Z,58.91
2022-08-28T14:53:37.267Z,59.30
2022-08-28T14:58:39.333Z,59.78
2022-08-28T15:03:41.424Z,59.66
2022-08-28T15:08:43.107Z,59.47
2022-08-28T15:13:46.700Z,59.77
2022-08-28T15:18:48.398Z,60.60
2022-08-28T15:23:51.633Z,60.71
2022-08-28T15:28:55.869Z,59.96
2022-08-28T15:33:58.113Z,60.38
2022-08-28T15:39:18.444Z,61.17
2022-08-28T15:44:20.034Z,61.08
2022-08-28T15:49:23.890Z,61.63
2022-08-28T15:54:25.765Z,62.02
2022-08-28T15:59:48.846Z,62.26
2022-08-28T16:04:49.708Z,62.56
2022-08-28T16:09:52.186Z,62.94
2022-08-28T16:14:53.902Z,63.47
2022-08-28T16:19:55.456Z,63.51
2022-08-28T16:24:57.347Z,64.01
2022-08-28T16:29:58.933Z,64.30
2022-08-28T16:35:03.036Z,64.42
2022-08-28T16:40:06.575Z,65.22
2022-08-28T16:45:08.588Z,66.15
2022-08-28T16:50:14.088Z,66.69
2022-08-28T16:55:16.109Z,67.26
2022-08-28T17:00:18.828Z,67.42
2022-08-28T17:05:20.715Z,67.59
2022-08-28T17:10:24.554Z,68.04
2022-08-28T17:15:26.399Z,68.99
2022-08-28T17:20:46.813Z,68.94
2022-08-28T17:26:41.337Z,68.93
2022-08-28T17:31:43.847Z,69.34
2022-08-28T17:36:45.583Z,69.89
2022-08-28T17:41:47.134Z,70.55
2022-08-28T17:46:48.731Z,71.07
2022-08-28T17:51:51.079Z,71.03
2022-08-28T17:56:53.257Z,71.41
2022-08-28T18:01:55.424Z,71.72
2022-08-28T18:06:57.072Z,72.49
2022-08-28T18:11:58.626Z,72.67
2022-08-28T18:17:00.560Z,72.86
2022-08-28T18:22:02.187Z,73.08
2022-08-28T18:27:05.168Z,72.61
2022-08-28T18:32:07.633Z,73.01
2022-08-28T18:37:09.608Z,73.21
2022-08-28T18:42:11.267Z,73.46
2022-08-28T18:47:12.897Z,74.17
2022-08-28T18:52:14.503Z,74.29
2022-08-28T18:57:18.617Z,74.45
2022-08-28T19:02:21.184Z,74.87
2022-08-28T19:07:22.828Z,74.48
2022-08-28T19:12:25.667Z,74.39
2022-08-28T19:17:27.917Z,73.37
2022-08-28T19:22:33.897Z,71.60
2022-08-28T19:27:36.047Z,71.27
2022-08-28T19:32:37.618Z,71.14
2022-08-28T19:37:42.584Z,70.62
2022-08-28T19:42:44.454Z,69.83
2022-08-28T19:47:47.048Z,69.85
2022-08-28T19:52:48.591Z,69.20
2022-08-28T19:57:50.452Z,68.45
2022-08-28T20:02:52.483Z,68.22
2022-08-28T20:07:54.207Z,67.54
2022-08-28T20:12:56.315Z,67.40
2022-08-28T20:17:57.923Z,67.41
2022-08-28T20:22:59.645Z,67.12
2022-08-28T20:28:02.005Z,66.65
2022-08-28T20:33:03.749Z,66.45
2022-08-28T20:38:05.725Z,65.82
2022-08-28T20:43:07.257Z,65.79
2022-08-28T20:48:08.799Z,65.67
2022-08-28T20:53:10.346Z,65.99
2022-08-28T20:58:13.333Z,66.74
2022-08-28T21:03:15.703Z,67.66
2022-08-28T21:08:17.463Z,68.17
2022-08-28T21:13:19.564Z,68.56
2022-08-28T21:18:21.096Z,69.13
2022-08-28T21:23:24.946Z,69.24
2022-08-28T21:28:26.704Z,69.96
2022-08-28T21:33:28.745Z,69.49
2022-08-28T21:38:30.285Z,70.05
2022-08-28T21:43:32.207Z,70.37
2022-08-28T21:48:36.147Z,70.50
2022-08-28T21:53:39.007Z,70.36
2022-08-28T21:58:40.637Z,70.46
2022-08-28T22:03:43.980Z,71.16
2022-08-28T22:08:47.107Z,72.05
2022-08-28T22:13:49.764Z,72.50
2022-08-28T22:18:51.771Z,73.00
2022-08-28T22:23:53.318Z,73.34
2022-08-28T22:28:55.887Z,73.08
2022-08-28T22:33:57.648Z,72.95
2022-08-28T22:38:59.151Z,72.19
2022-08-28T22:44:00.723Z,71.29
2022-08-28T22:49:02.877Z,70.46
2022-08-28T22:54:04.965Z,70.06
2022-08-28T22:59:06.515Z,70.56
2022-08-28T23:04:09.117Z,69.76
2022-08-28T23:09:10.946Z,68.77
2022-08-28T23:14:13.123Z,68.34
2022-08-28T23:19:15.311Z,66.85
2022-08-28T23:24:17.569Z,66.87
2022-08-28T23:29:19.185Z,67.38
2022-08-28T23:34:20.972Z,67.94
2022-08-28T23:39:23.002Z,68.08
2022-08-28T23:44:26.237Z,68.20
2022-08-28T23:49:28.192Z,68.00
2022-08-28T23:54:30.448Z,68.26
2022-08-28T23:59:32.624Z,68.75
